sensor_id;sensor_type;location;lat;lon;timestamp;P1;durP1;ratioP1;P2;durP2;ratioP2
37973;SDS011;23796;51.458;7.000;2024-02-26T00:00:45;2.50;;;0.90;;
37973;SDS011;23796;51.458;7.000;2024-02-26T00:03:11;3.65;;;0.98;;
37973;SDS011;23796;51.458;7.000;2024-02-26T00:05:37;1.52;;;0.60;;
37973;SDS011;23796;51.458;7.000;2024-02-26T00:08:04;4.25;;;0.98;;
37973;SDS011;23796;51.458;7.000;2024-02-26T00:10:34;2.67;;;1.00;;
37973;SDS011;23796;51.458;7.000;2024-02-26T00:13:03;2.58;;;1.00;;
37973;SDS011;23796;51.458;7.000;2024-02-26T00:15:28;3.58;;;1.05;;
37973;SDS011;23796;51.458;7.000;2024-02-26T00:17:54;2.60;;;0.95;;
37973;SDS011;23796;51.458;7.000;2024-02-26T00:20:20;2.63;;;0.82;;
37973;SDS011;23796;51.458;7.000;2024-02-26T00:22:45;2.97;;;1.00;;
37973;SDS011;23796;51.458;7.000;2024-02-26T00:25:11;3.92;;;1.30;;
37973;SDS011;23796;51.458;7.000;2024-02-26T00:27:37;3.05;;;1.00;;
37973;SDS011;23796;51.458;7.000;2024-02-26T00:30:05;2.85;;;1.00;;
37973;SDS011;23796;51.458;7.000;2024-02-26T00:32:33;2.70;;;0.90;;
37973;SDS011;23796;51.458;7.000;2024-02-26T00:34:59;2.97;;;1.00;;
37973;SDS011;23796;51.458;7.000;2024-02-26T00:37:25;3.33;;;1.00;;
37973;SDS011;23796;51.458;7.000;2024-02-26T00:39:50;2.53;;;0.80;;
37973;SDS011;23796;51.458;7.000;2024-02-26T00:42:18;3.38;;;0.90;;
37973;SDS011;23796;51.458;7.000;2024-02-26T00:44:46;3.05;;;1.10;;
37973;SDS011;23796;51.458;7.000;2024-02-26T00:47:13;2.70;;;0.95;;
37973;SDS011;23796;51.458;7.000;2024-02-26T00:49:39;2.58;;;0.70;;
37973;SDS011;23796;51.458;7.000;2024-02-26T00:52:05;1.65;;;0.75;;
37973;SDS011;23796;51.458;7.000;2024-02-26T00:54:30;2.85;;;0.90;;
37973;SDS011;23796;51.458;7.000;2024-02-26T00:56:56;2.13;;;0.85;;
37973;SDS011;23796;51.458;7.000;2024-02-26T00:59:21;2.00;;;0.60;;
37973;SDS011;23796;51.458;7.000;2024-02-26T01:01:47;3.17;;;0.85;;
37973;SDS011;23796;51.458;7.000;2024-02-26T01:04:13;1.52;;;0.60;;
37973;SDS011;23796;51.458;7.000;2024-02-26T01:06:38;2.58;;;0.90;;
37973;SDS011;23796;51.458;7.000;2024-02-26T01:09:04;2.38;;;0.73;;
37973;SDS011;23796;51.458;7.000;2024-02-26T01:11:29;2.65;;;0.65;;
37973;SDS011;23796;51.458;7.000;2024-02-26T01:13:55;3.10;;;1.00;;
37973;SDS011;23796;51.458;7.000;2024-02-26T01:16:22;2.08;;;0.70;;
37973;SDS011;23796;51.458;7.000;2024-02-26T01:18:48;2.63;;;0.93;;
37973;SDS011;23796;51.458;7.000;2024-02-26T01:21:14;2.33;;;1.00;;
37973;SDS011;23796;51.458;7.000;2024-02-26T01:23:39;2.45;;;1.13;;
37973;SDS011;23796;51.458;7.000;2024-02-26T01:26:05;2.05;;;0.85;;
37973;SDS011;23796;51.458;7.000;2024-02-26T01:28:33;2.35;;;0.95;;
37973;SDS011;23796;51.458;7.000;2024-02-26T01:30:58;2.75;;;1.02;;
37973;SDS011;23796;51.458;7.000;2024-02-26T01:33:25;3.17;;;0.93;;
37973;SDS011;23796;51.458;7.000;2024-02-26T01:35:51;3.20;;;0.77;;
37973;SDS011;23796;51.458;7.000;2024-02-26T01:38:18;2.00;;;0.70;;
37973;SDS011;23796;51.458;7.000;2024-02-26T01:40:43;2.08;;;0.77;;
37973;SDS011;23796;51.458;7.000;2024-02-26T01:43:09;2.63;;;0.80;;
37973;SDS011;23796;51.458;7.000;2024-02-26T01:45:34;2.85;;;0.90;;
37973;SDS011;23796;51.458;7.000;2024-02-26T01:48:00;2.55;;;0.80;;
37973;SDS011;23796;51.458;7.000;2024-02-26T01:50:26;2.40;;;0.90;;
37973;SDS011;23796;51.458;7.000;2024-02-26T01:52:52;2.55;;;0.80;;
37973;SDS011;23796;51.458;7.000;2024-02-26T01:55:22;2.58;;;1.00;;
37973;SDS011;23796;51.458;7.000;2024-02-26T01:57:49;3.20;;;1.10;;
37973;SDS011;23796;51.458;7.000;2024-02-26T02:00:16;2.30;;;0.90;;
37973;SDS011;23796;51.458;7.000;2024-02-26T02:02:45;4.75;;;1.52;;
37973;SDS011;23796;51.458;7.000;2024-02-26T02:05:13;3.70;;;1.27;;
37973;SDS011;23796;51.458;7.000;2024-02-26T02:07:41;2.03;;;0.98;;
37973;SDS011;23796;51.458;7.000;2024-02-26T02:10:09;3.08;;;1.00;;
37973;SDS011;23796;51.458;7.000;2024-02-26T02:12:34;2.97;;;1.00;;
37973;SDS011;23796;51.458;7.000;2024-02-26T02:15:01;2.85;;;1.05;;
37973;SDS011;23796;51.458;7.000;2024-02-26T02:17:30;3.08;;;1.17;;
37973;SDS011;23796;51.458;7.000;2024-02-26T02:19:56;2.53;;;0.85;;
37973;SDS011;23796;51.458;7.000;2024-02-26T02:22:24;6.05;;;1.40;;
37973;SDS011;23796;51.458;7.000;2024-02-26T02:24:52;3.17;;;1.10;;
37973;SDS011;23796;51.458;7.000;2024-02-26T02:27:18;1.88;;;0.95;;
37973;SDS011;23796;51.458;7.000;2024-02-26T02:29:45;2.22;;;0.85;;
37973;SDS011;23796;51.458;7.000;2024-02-26T02:32:11;3.08;;;0.98;;
37973;SDS011;23796;51.458;7.000;2024-02-26T02:34:37;3.85;;;1.20;;
37973;SDS011;23796;51.458;7.000;2024-02-26T02:37:05;5.38;;;3.15;;
37973;SDS011;23796;51.458;7.000;2024-02-26T02:39:33;5.50;;;1.30;;
37973;SDS011;23796;51.458;7.000;2024-02-26T02:42:01;1.75;;;0.80;;
37973;SDS011;23796;51.458;7.000;2024-02-26T02:44:26;3.15;;;0.90;;
37973;SDS011;23796;51.458;7.000;2024-02-26T02:46:52;3.30;;;1.02;;
37973;SDS011;23796;51.458;7.000;2024-02-26T02:49:18;2.70;;;1.10;;
37973;SDS011;23796;51.458;7.000;2024-02-26T02:51:44;2.67;;;1.27;;
37973;SDS011;23796;51.458;7.000;2024-02-26T02:54:09;1.67;;;0.75;;
37973;SDS011;23796;51.458;7.000;2024-02-26T02:56:35;3.08;;;1.05;;
37973;SDS011;23796;51.458;7.000;2024-02-26T02:59:01;2.63;;;1.10;;
37973;SDS011;23796;51.458;7.000;2024-02-26T03:01:27;3.58;;;1.30;;
37973;SDS011;23796;51.458;7.000;2024-02-26T03:03:52;3.70;;;1.20;;
37973;SDS011;23796;51.458;7.000;2024-02-26T03:06:18;2.70;;;1.40;;
37973;SDS011;23796;51.458;7.000;2024-02-26T03:08:46;2.85;;;1.10;;
37973;SDS011;23796;51.458;7.000;2024-02-26T03:11:15;2.53;;;1.00;;
37973;SDS011;23796;51.458;7.000;2024-02-26T03:13:43;3.30;;;1.10;;
37973;SDS011;23796;51.458;7.000;2024-02-26T03:16:09;2.40;;;1.02;;
37973;SDS011;23796;51.458;7.000;2024-02-26T03:18:34;2.13;;;0.85;;
37973;SDS011;23796;51.458;7.000;2024-02-26T03:21:00;2.13;;;1.10;;
37973;SDS011;23796;51.458;7.000;2024-02-26T03:23:26;3.03;;;1.33;;
37973;SDS011;23796;51.458;7.000;2024-02-26T03:25:54;2.50;;;0.90;;
37973;SDS011;23796;51.458;7.000;2024-02-26T03:28:23;3.15;;;1.13;;
37973;SDS011;23796;51.458;7.000;2024-02-26T03:30:51;2.58;;;0.95;;
37973;SDS011;23796;51.458;7.000;2024-02-26T03:33:16;2.75;;;1.00;;
37973;SDS011;23796;51.458;7.000;2024-02-26T03:35:44;2.53;;;0.90;;
37973;SDS011;23796;51.458;7.000;2024-02-26T03:38:10;2.55;;;0.95;;
37973;SDS011;23796;51.458;7.000;2024-02-26T03:40:35;1.92;;;0.90;;
37973;SDS011;23796;51.458;7.000;2024-02-26T03:43:01;2.90;;;1.25;;
37973;SDS011;23796;51.458;7.000;2024-02-26T03:45:32;2.25;;;1.00;;
37973;SDS011;23796;51.458;7.000;2024-02-26T03:47:57;3.28;;;0.77;;
37973;SDS011;23796;51.458;7.000;2024-02-26T03:50:23;3.50;;;0.98;;
37973;SDS011;23796;51.458;7.000;2024-02-26T03:52:48;1.92;;;0.63;;
37973;SDS011;23796;51.458;7.000;2024-02-26T03:55:14;1.85;;;0.90;;
37973;SDS011;23796;51.458;7.000;2024-02-26T03:57:45;3.65;;;0.80;;
37973;SDS011;23796;51.458;7.000;2024-02-26T04:00:11;2.38;;;0.90;;
37973;SDS011;23796;51.458;7.000;2024-02-26T04:02:37;2.53;;;0.80;;
37973;SDS011;23796;51.458;7.000;2024-02-26T04:05:03;2.70;;;0.80;;
37973;SDS011;23796;51.458;7.000;2024-02-26T04:07:34;2.00;;;0.80;;
37973;SDS011;23796;51.458;7.000;2024-02-26T04:10:00;3.22;;;1.10;;
37973;SDS011;23796;51.458;7.000;2024-02-26T04:12:28;3.28;;;1.15;;
37973;SDS011;23796;51.458;7.000;2024-02-26T04:14:56;2.08;;;0.80;;
37973;SDS011;23796;51.458;7.000;2024-02-26T04:17:22;2.95;;;1.10;;
37973;SDS011;23796;51.458;7.000;2024-02-26T04:19:49;2.30;;;1.00;;
37973;SDS011;23796;51.458;7.000;2024-02-26T04:22:14;1.83;;;0.82;;
37973;SDS011;23796;51.458;7.000;2024-02-26T04:24:40;2.40;;;0.90;;
37973;SDS011;23796;51.458;7.000;2024-02-26T04:27:05;2.63;;;1.15;;
37973;SDS011;23796;51.458;7.000;2024-02-26T04:29:31;2.17;;;0.88;;
37973;SDS011;23796;51.458;7.000;2024-02-26T04:31:59;2.33;;;0.85;;
37973;SDS011;23796;51.458;7.000;2024-02-26T04:34:24;2.28;;;0.95;;
37973;SDS011;23796;51.458;7.000;2024-02-26T04:36:50;2.25;;;0.90;;
37973;SDS011;23796;51.458;7.000;2024-02-26T04:39:16;3.75;;;1.23;;
37973;SDS011;23796;51.458;7.000;2024-02-26T04:41:41;1.90;;;0.80;;
37973;SDS011;23796;51.458;7.000;2024-02-26T04:44:09;2.67;;;0.93;;
37973;SDS011;23796;51.458;7.000;2024-02-26T04:46:35;2.83;;;1.10;;
37973;SDS011;23796;51.458;7.000;2024-02-26T04:49:00;2.42;;;0.80;;
37973;SDS011;23796;51.458;7.000;2024-02-26T04:51:26;2.10;;;1.10;;
37973;SDS011;23796;51.458;7.000;2024-02-26T04:53:51;2.42;;;0.95;;
37973;SDS011;23796;51.458;7.000;2024-02-26T04:56:20;2.47;;;0.88;;
37973;SDS011;23796;51.458;7.000;2024-02-26T04:58:46;3.05;;;1.13;;
37973;SDS011;23796;51.458;7.000;2024-02-26T05:01:12;2.50;;;0.90;;
37973;SDS011;23796;51.458;7.000;2024-02-26T05:03:38;2.55;;;0.95;;
37973;SDS011;23796;51.458;7.000;2024-02-26T05:06:04;3.72;;;1.15;;
37973;SDS011;23796;51.458;7.000;2024-02-26T05:08:30;1.98;;;0.95;;
37973;SDS011;23796;51.458;7.000;2024-02-26T05:10:56;4.05;;;1.13;;
37973;SDS011;23796;51.458;7.000;2024-02-26T05:13:25;3.90;;;1.25;;
37973;SDS011;23796;51.458;7.000;2024-02-26T05:15:50;2.53;;;0.98;;
37973;SDS011;23796;51.458;7.000;2024-02-26T05:18:18;2.83;;;1.10;;
37973;SDS011;23796;51.458;7.000;2024-02-26T05:20:44;3.10;;;1.23;;
37973;SDS011;23796;51.458;7.000;2024-02-26T05:23:10;3.45;;;1.27;;
37973;SDS011;23796;51.458;7.000;2024-02-26T05:25:38;3.03;;;1.20;;
37973;SDS011;23796;51.458;7.000;2024-02-26T05:28:06;2.25;;;0.93;;
37973;SDS011;23796;51.458;7.000;2024-02-26T05:30:32;3.13;;;1.27;;
37973;SDS011;23796;51.458;7.000;2024-02-26T05:33:00;2.83;;;1.23;;
37973;SDS011;23796;51.458;7.000;2024-02-26T05:35:26;3.67;;;1.13;;
37973;SDS011;23796;51.458;7.000;2024-02-26T05:37:54;4.30;;;2.20;;
37973;SDS011;23796;51.458;7.000;2024-02-26T05:40:19;2.92;;;1.35;;
37973;SDS011;23796;51.458;7.000;2024-02-26T05:42:45;2.88;;;1.30;;
37973;SDS011;23796;51.458;7.000;2024-02-26T05:45:14;3.15;;;1.10;;
37973;SDS011;23796;51.458;7.000;2024-02-26T05:47:39;2.83;;;1.33;;
37973;SDS011;23796;51.458;7.000;2024-02-26T05:50:10;3.15;;;1.27;;
37973;SDS011;23796;51.458;7.000;2024-02-26T05:52:36;3.92;;;1.40;;
37973;SDS011;23796;51.458;7.000;2024-02-26T05:55:06;3.72;;;1.50;;
37973;SDS011;23796;51.458;7.000;2024-02-26T05:57:34;2.97;;;1.30;;
37973;SDS011;23796;51.458;7.000;2024-02-26T06:00:03;3.20;;;1.48;;
37973;SDS011;23796;51.458;7.000;2024-02-26T06:02:30;3.63;;;1.50;;
37973;SDS011;23796;51.458;7.000;2024-02-26T06:04:56;3.85;;;1.40;;
37973;SDS011;23796;51.458;7.000;2024-02-26T06:07:22;5.45;;;1.83;;
37973;SDS011;23796;51.458;7.000;2024-02-26T06:09:50;3.10;;;1.02;;
37973;SDS011;23796;51.458;7.000;2024-02-26T06:12:16;2.80;;;1.13;;
37973;SDS011;23796;51.458;7.000;2024-02-26T06:14:44;3.25;;;1.30;;
37973;SDS011;23796;51.458;7.000;2024-02-26T06:17:09;3.00;;;1.30;;
37973;SDS011;23796;51.458;7.000;2024-02-26T06:19:35;3.83;;;1.65;;
37973;SDS011;23796;51.458;7.000;2024-02-26T06:22:01;3.25;;;1.88;;
37973;SDS011;23796;51.458;7.000;2024-02-26T06:24:26;3.60;;;1.65;;
37973;SDS011;23796;51.458;7.000;2024-02-26T06:26:52;4.95;;;1.80;;
37973;SDS011;23796;51.458;7.000;2024-02-26T06:29:20;4.28;;;1.40;;
37973;SDS011;23796;51.458;7.000;2024-02-26T06:31:45;3.33;;;1.52;;
37973;SDS011;23796;51.458;7.000;2024-02-26T06:34:12;3.92;;;1.50;;
37973;SDS011;23796;51.458;7.000;2024-02-26T06:36:38;2.92;;;1.30;;
37973;SDS011;23796;51.458;7.000;2024-02-26T06:39:06;3.72;;;1.65;;
37973;SDS011;23796;51.458;7.000;2024-02-26T06:41:33;3.13;;;1.40;;
37973;SDS011;23796;51.458;7.000;2024-02-26T06:43:58;5.10;;;2.17;;
37973;SDS011;23796;51.458;7.000;2024-02-26T06:46:24;3.33;;;1.50;;
37973;SDS011;23796;51.458;7.000;2024-02-26T06:48:51;3.78;;;2.10;;
37973;SDS011;23796;51.458;7.000;2024-02-26T06:51:17;3.78;;;1.50;;
37973;SDS011;23796;51.458;7.000;2024-02-26T06:53:42;2.72;;;1.23;;
37973;SDS011;23796;51.458;7.000;2024-02-26T06:56:08;2.90;;;1.00;;
37973;SDS011;23796;51.458;7.000;2024-02-26T06:58:36;3.35;;;1.50;;
37973;SDS011;23796;51.458;7.000;2024-02-26T07:01:02;4.00;;;2.20;;
37973;SDS011;23796;51.458;7.000;2024-02-26T07:03:33;4.13;;;1.15;;
37973;SDS011;23796;51.458;7.000;2024-02-26T07:05:59;3.00;;;1.25;;
37973;SDS011;23796;51.458;7.000;2024-02-26T07:08:24;3.17;;;1.40;;
37973;SDS011;23796;51.458;7.000;2024-02-26T07:10:52;2.65;;;0.90;;
37973;SDS011;23796;51.458;7.000;2024-02-26T07:13:18;4.38;;;1.40;;
37973;SDS011;23796;51.458;7.000;2024-02-26T07:15:46;2.83;;;1.20;;
37973;SDS011;23796;51.458;7.000;2024-02-26T07:18:11;2.65;;;1.52;;
37973;SDS011;23796;51.458;7.000;2024-02-26T07:20:37;3.25;;;1.48;;
37973;SDS011;23796;51.458;7.000;2024-02-26T07:23:02;2.15;;;1.02;;
37973;SDS011;23796;51.458;7.000;2024-02-26T07:25:28;3.35;;;1.30;;
37973;SDS011;23796;51.458;7.000;2024-02-26T07:27:54;3.92;;;1.50;;
37973;SDS011;23796;51.458;7.000;2024-02-26T07:30:19;2.85;;;1.08;;
37973;SDS011;23796;51.458;7.000;2024-02-26T07:32:45;3.22;;;1.05;;
37973;SDS011;23796;51.458;7.000;2024-02-26T07:35:10;3.05;;;1.10;;
37973;SDS011;23796;51.458;7.000;2024-02-26T07:37:36;3.97;;;1.50;;
37973;SDS011;23796;51.458;7.000;2024-02-26T07:40:02;3.20;;;1.65;;
37973;SDS011;23796;51.458;7.000;2024-02-26T07:42:28;3.60;;;1.60;;
37973;SDS011;23796;51.458;7.000;2024-02-26T07:44:54;3.90;;;1.63;;
37973;SDS011;23796;51.458;7.000;2024-02-26T07:47:22;3.10;;;1.40;;
37973;SDS011;23796;51.458;7.000;2024-02-26T07:49:48;4.43;;;1.80;;
37973;SDS011;23796;51.458;7.000;2024-02-26T07:52:13;4.10;;;1.30;;
37973;SDS011;23796;51.458;7.000;2024-02-26T07:54:41;3.80;;;1.15;;
37973;SDS011;23796;51.458;7.000;2024-02-26T07:57:09;3.25;;;1.50;;
37973;SDS011;23796;51.458;7.000;2024-02-26T07:59:35;3.85;;;1.55;;
37973;SDS011;23796;51.458;7.000;2024-02-26T08:02:00;4.88;;;1.60;;
37973;SDS011;23796;51.458;7.000;2024-02-26T08:04:30;2.65;;;1.10;;
37973;SDS011;23796;51.458;7.000;2024-02-26T08:06:56;2.70;;;1.20;;
37973;SDS011;23796;51.458;7.000;2024-02-26T08:09:21;3.95;;;1.38;;
37973;SDS011;23796;51.458;7.000;2024-02-26T08:11:47;5.20;;;2.40;;
37973;SDS011;23796;51.458;7.000;2024-02-26T08:14:13;13.05;;;8.82;;
37973;SDS011;23796;51.458;7.000;2024-02-26T08:16:38;4.88;;;2.53;;
37973;SDS011;23796;51.458;7.000;2024-02-26T08:19:04;4.18;;;1.85;;
37973;SDS011;23796;51.458;7.000;2024-02-26T08:21:30;3.50;;;1.48;;
37973;SDS011;23796;51.458;7.000;2024-02-26T08:23:55;4.65;;;1.40;;
37973;SDS011;23796;51.458;7.000;2024-02-26T08:26:21;5.43;;;1.60;;
37973;SDS011;23796;51.458;7.000;2024-02-26T08:28:49;3.67;;;1.52;;
37973;SDS011;23796;51.458;7.000;2024-02-26T08:31:16;3.78;;;1.45;;
37973;SDS011;23796;51.458;7.000;2024-02-26T08:33:41;2.97;;;1.67;;
37973;SDS011;23796;51.458;7.000;2024-02-26T08:36:07;3.97;;;1.67;;
37973;SDS011;23796;51.458;7.000;2024-02-26T08:38:35;3.83;;;1.42;;
37973;SDS011;23796;51.458;7.000;2024-02-26T08:41:01;2.40;;;1.20;;
37973;SDS011;23796;51.458;7.000;2024-02-26T08:43:30;3.63;;;1.50;;
37973;SDS011;23796;51.458;7.000;2024-02-26T08:45:56;2.67;;;1.30;;
37973;SDS011;23796;51.458;7.000;2024-02-26T08:48:22;4.10;;;1.70;;
37973;SDS011;23796;51.458;7.000;2024-02-26T08:50:48;4.05;;;1.60;;
37973;SDS011;23796;51.458;7.000;2024-02-26T08:53:18;4.75;;;1.77;;
37973;SDS011;23796;51.458;7.000;2024-02-26T08:55:45;4.75;;;1.70;;
37973;SDS011;23796;51.458;7.000;2024-02-26T08:58:11;3.97;;;1.40;;
37973;SDS011;23796;51.458;7.000;2024-02-26T09:00:36;2.65;;;1.25;;
37973;SDS011;23796;51.458;7.000;2024-02-26T09:03:02;3.35;;;1.55;;
37973;SDS011;23796;51.458;7.000;2024-02-26T09:05:28;3.28;;;1.50;;
37973;SDS011;23796;51.458;7.000;2024-02-26T09:07:53;3.33;;;1.60;;
37973;SDS011;23796;51.458;7.000;2024-02-26T09:10:20;3.08;;;1.33;;
37973;SDS011;23796;51.458;7.000;2024-02-26T09:12:45;3.72;;;1.45;;
37973;SDS011;23796;51.458;7.000;2024-02-26T09:15:11;4.35;;;1.58;;
37973;SDS011;23796;51.458;7.000;2024-02-26T09:17:39;3.97;;;1.63;;
37973;SDS011;23796;51.458;7.000;2024-02-26T09:20:04;5.38;;;1.65;;
37973;SDS011;23796;51.458;7.000;2024-02-26T09:22:34;4.75;;;1.92;;
37973;SDS011;23796;51.458;7.000;2024-02-26T09:25:02;4.97;;;1.88;;
37973;SDS011;23796;51.458;7.000;2024-02-26T09:27:29;3.10;;;1.60;;
37973;SDS011;23796;51.458;7.000;2024-02-26T09:29:55;4.35;;;1.77;;
37973;SDS011;23796;51.458;7.000;2024-02-26T09:32:23;6.70;;;2.00;;
37973;SDS011;23796;51.458;7.000;2024-02-26T09:34:49;3.90;;;2.00;;
37973;SDS011;23796;51.458;7.000;2024-02-26T09:37:15;2.97;;;1.58;;
37973;SDS011;23796;51.458;7.000;2024-02-26T09:39:41;4.47;;;1.90;;
37973;SDS011;23796;51.458;7.000;2024-02-26T09:42:07;3.50;;;1.98;;
37973;SDS011;23796;51.458;7.000;2024-02-26T09:44:35;3.95;;;1.95;;
37973;SDS011;23796;51.458;7.000;2024-02-26T09:47:04;4.43;;;2.00;;
37973;SDS011;23796;51.458;7.000;2024-02-26T09:49:32;4.43;;;1.88;;
37973;SDS011;23796;51.458;7.000;2024-02-26T09:51:59;3.70;;;1.90;;
37973;SDS011;23796;51.458;7.000;2024-02-26T09:54:27;4.00;;;2.00;;
37973;SDS011;23796;51.458;7.000;2024-02-26T09:56:53;3.70;;;1.90;;
37973;SDS011;23796;51.458;7.000;2024-02-26T09:59:24;3.70;;;1.85;;
37973;SDS011;23796;51.458;7.000;2024-02-26T10:01:51;3.92;;;2.03;;
37973;SDS011;23796;51.458;7.000;2024-02-26T10:04:17;4.05;;;1.90;;
37973;SDS011;23796;51.458;7.000;2024-02-26T10:06:43;4.15;;;1.88;;
37973;SDS011;23796;51.458;7.000;2024-02-26T10:09:13;4.53;;;2.42;;
37973;SDS011;23796;51.458;7.000;2024-02-26T10:11:43;3.58;;;1.75;;
37973;SDS011;23796;51.458;7.000;2024-02-26T10:14:09;3.22;;;1.65;;
37973;SDS011;23796;51.458;7.000;2024-02-26T10:16:35;4.05;;;2.05;;
37973;SDS011;23796;51.458;7.000;2024-02-26T10:19:01;4.45;;;2.30;;
37973;SDS011;23796;51.458;7.000;2024-02-26T10:21:30;4.35;;;1.92;;
37973;SDS011;23796;51.458;7.000;2024-02-26T10:23:55;6.53;;;2.25;;
37973;SDS011;23796;51.458;7.000;2024-02-26T10:26:21;4.95;;;2.10;;
37973;SDS011;23796;51.458;7.000;2024-02-26T10:28:47;3.92;;;2.03;;
37973;SDS011;23796;51.458;7.000;2024-02-26T10:31:13;4.20;;;2.33;;
37973;SDS011;23796;51.458;7.000;2024-02-26T10:33:39;4.80;;;2.40;;
37973;SDS011;23796;51.458;7.000;2024-02-26T10:36:07;4.40;;;2.38;;
37973;SDS011;23796;51.458;7.000;2024-02-26T10:38:34;4.70;;;2.05;;
37973;SDS011;23796;51.458;7.000;2024-02-26T10:41:03;4.50;;;2.50;;
37973;SDS011;23796;51.458;7.000;2024-02-26T10:43:31;5.57;;;2.30;;
37973;SDS011;23796;51.458;7.000;2024-02-26T10:45:59;3.83;;;2.30;;
37973;SDS011;23796;51.458;7.000;2024-02-26T10:48:24;9.70;;;4.32;;
37973;SDS011;23796;51.458;7.000;2024-02-26T10:50:52;8.80;;;4.43;;
37973;SDS011;23796;51.458;7.000;2024-02-26T10:53:21;7.60;;;4.55;;
37973;SDS011;23796;51.458;7.000;2024-02-26T10:55:57;8.02;;;4.85;;
37973;SDS011;23796;51.458;7.000;2024-02-26T10:58:26;6.53;;;4.28;;
37973;SDS011;23796;51.458;7.000;2024-02-26T11:00:53;5.35;;;2.42;;
37973;SDS011;23796;51.458;7.000;2024-02-26T11:03:22;5.97;;;3.67;;
37973;SDS011;23796;51.458;7.000;2024-02-26T11:05:50;4.57;;;3.00;;
37973;SDS011;23796;51.458;7.000;2024-02-26T11:08:19;4.82;;;2.38;;
37973;SDS011;23796;51.458;7.000;2024-02-26T11:10:50;5.30;;;3.15;;
37973;SDS011;23796;51.458;7.000;2024-02-26T11:13:21;6.60;;;2.80;;
37973;SDS011;23796;51.458;7.000;2024-02-26T11:15:52;3.60;;;2.10;;
37973;SDS011;23796;51.458;7.000;2024-02-26T11:18:19;5.55;;;2.33;;
37973;SDS011;23796;51.458;7.000;2024-02-26T11:20:48;5.65;;;2.13;;
37973;SDS011;23796;51.458;7.000;2024-02-26T11:23:20;6.38;;;2.70;;
37973;SDS011;23796;51.458;7.000;2024-02-26T11:25:45;3.88;;;2.20;;
37973;SDS011;23796;51.458;7.000;2024-02-26T11:28:13;4.10;;;2.05;;
37973;SDS011;23796;51.458;7.000;2024-02-26T11:30:42;4.57;;;2.17;;
37973;SDS011;23796;51.458;7.000;2024-02-26T11:33:10;5.78;;;2.58;;
37973;SDS011;23796;51.458;7.000;2024-02-26T11:35:37;4.70;;;2.13;;
37973;SDS011;23796;51.458;7.000;2024-02-26T11:38:04;3.60;;;2.30;;
37973;SDS011;23796;51.458;7.000;2024-02-26T11:40:31;3.83;;;2.00;;
37973;SDS011;23796;51.458;7.000;2024-02-26T11:43:01;4.50;;;2.25;;
37973;SDS011;23796;51.458;7.000;2024-02-26T11:48:04;6.60;;;3.03;;
37973;SDS011;23796;51.458;7.000;2024-02-26T11:50:41;4.30;;;2.53;;
37973;SDS011;23796;51.458;7.000;2024-02-26T11:58:57;4.97;;;3.22;;
37973;SDS011;23796;51.458;7.000;2024-02-26T12:04:18;5.30;;;2.90;;
37973;SDS011;23796;51.458;7.000;2024-02-26T12:06:47;5.32;;;2.60;;
37973;SDS011;23796;51.458;7.000;2024-02-26T12:11:58;4.47;;;3.15;;
37973;SDS011;23796;51.458;7.000;2024-02-26T12:14:26;5.03;;;3.28;;
37973;SDS011;23796;51.458;7.000;2024-02-26T12:16:54;4.53;;;3.00;;
37973;SDS011;23796;51.458;7.000;2024-02-26T12:19:21;6.13;;;3.63;;
37973;SDS011;23796;51.458;7.000;2024-02-26T12:21:50;4.88;;;3.30;;
37973;SDS011;23796;51.458;7.000;2024-02-26T12:24:18;5.15;;;3.40;;
37973;SDS011;23796;51.458;7.000;2024-02-26T12:26:45;6.30;;;3.15;;
37973;SDS011;23796;51.458;7.000;2024-02-26T12:29:10;6.00;;;3.53;;
37973;SDS011;23796;51.458;7.000;2024-02-26T12:31:37;6.88;;;3.60;;
37973;SDS011;23796;51.458;7.000;2024-02-26T12:34:04;4.90;;;3.13;;
37973;SDS011;23796;51.458;7.000;2024-02-26T12:36:31;5.72;;;3.65;;
37973;SDS011;23796;51.458;7.000;2024-02-26T12:38:59;5.28;;;3.10;;
37973;SDS011;23796;51.458;7.000;2024-02-26T12:41:25;4.57;;;3.03;;
37973;SDS011;23796;51.458;7.000;2024-02-26T12:43:52;4.90;;;3.20;;
37973;SDS011;23796;51.458;7.000;2024-02-26T12:46:18;5.15;;;3.50;;
37973;SDS011;23796;51.458;7.000;2024-02-26T12:48:46;4.82;;;3.20;;
37973;SDS011;23796;51.458;7.000;2024-02-26T12:51:12;6.82;;;3.30;;
37973;SDS011;23796;51.458;7.000;2024-02-26T12:53:40;6.68;;;3.38;;
37973;SDS011;23796;51.458;7.000;2024-02-26T12:56:07;6.28;;;3.65;;
37973;SDS011;23796;51.458;7.000;2024-02-26T12:58:33;5.25;;;3.35;;
37973;SDS011;23796;51.458;7.000;2024-02-26T13:01:03;4.72;;;3.47;;
37973;SDS011;23796;51.458;7.000;2024-02-26T13:03:32;7.05;;;2.97;;
37973;SDS011;23796;51.458;7.000;2024-02-26T13:05:59;4.65;;;3.05;;
37973;SDS011;23796;51.458;7.000;2024-02-26T13:08:25;4.60;;;2.92;;
37973;SDS011;23796;51.458;7.000;2024-02-26T13:10:51;5.18;;;2.67;;
37973;SDS011;23796;51.458;7.000;2024-02-26T13:13:18;6.00;;;3.22;;
37973;SDS011;23796;51.458;7.000;2024-02-26T13:15:48;4.70;;;3.05;;
37973;SDS011;23796;51.458;7.000;2024-02-26T13:18:14;5.13;;;2.97;;
37973;SDS011;23796;51.458;7.000;2024-02-26T13:20:40;6.10;;;2.92;;
37973;SDS011;23796;51.458;7.000;2024-02-26T13:23:07;4.93;;;2.95;;
37973;SDS011;23796;51.458;7.000;2024-02-26T13:25:35;5.47;;;3.00;;
37973;SDS011;23796;51.458;7.000;2024-02-26T13:28:13;4.10;;;2.30;;
37973;SDS011;23796;51.458;7.000;2024-02-26T13:30:50;4.93;;;2.75;;
37973;SDS011;23796;51.458;7.000;2024-02-26T13:33:22;4.07;;;2.40;;
37973;SDS011;23796;51.458;7.000;2024-02-26T13:35:49;3.85;;;2.30;;
37973;SDS011;23796;51.458;7.000;2024-02-26T13:38:15;3.72;;;2.15;;
37973;SDS011;23796;51.458;7.000;2024-02-26T13:40:43;4.35;;;2.13;;
37973;SDS011;23796;51.458;7.000;2024-02-26T13:43:11;4.55;;;2.72;;
37973;SDS011;23796;51.458;7.000;2024-02-26T13:45:37;4.32;;;2.58;;
37973;SDS011;23796;51.458;7.000;2024-02-26T13:48:10;3.80;;;2.30;;
37973;SDS011;23796;51.458;7.000;2024-02-26T13:53:05;4.07;;;1.90;;
37973;SDS011;23796;51.458;7.000;2024-02-26T13:55:31;4.38;;;2.38;;
37973;SDS011;23796;51.458;7.000;2024-02-26T13:57:57;3.75;;;1.83;;
37973;SDS011;23796;51.458;7.000;2024-02-26T14:00:24;3.40;;;1.70;;
37973;SDS011;23796;51.458;7.000;2024-02-26T14:02:50;4.10;;;2.05;;
37973;SDS011;23796;51.458;7.000;2024-02-26T14:05:16;3.72;;;2.13;;
37973;SDS011;23796;51.458;7.000;2024-02-26T14:07:42;3.60;;;1.80;;
37973;SDS011;23796;51.458;7.000;2024-02-26T14:10:11;4.18;;;1.95;;
37973;SDS011;23796;51.458;7.000;2024-02-26T14:12:37;4.45;;;2.00;;
37973;SDS011;23796;51.458;7.000;2024-02-26T14:15:04;4.20;;;2.03;;
37973;SDS011;23796;51.458;7.000;2024-02-26T14:17:34;4.55;;;2.08;;
37973;SDS011;23796;51.458;7.000;2024-02-26T14:19:59;3.85;;;1.95;;
37973;SDS011;23796;51.458;7.000;2024-02-26T14:22:28;4.30;;;2.10;;
37973;SDS011;23796;51.458;7.000;2024-02-26T14:24:55;3.85;;;2.00;;
37973;SDS011;23796;51.458;7.000;2024-02-26T14:27:21;3.58;;;1.85;;
37973;SDS011;23796;51.458;7.000;2024-02-26T14:29:49;3.97;;;2.22;;
37973;SDS011;23796;51.458;7.000;2024-02-26T14:32:15;4.50;;;2.08;;
37973;SDS011;23796;51.458;7.000;2024-02-26T14:34:41;4.38;;;2.00;;
37973;SDS011;23796;51.458;7.000;2024-02-26T14:37:06;3.90;;;2.25;;
37973;SDS011;23796;51.458;7.000;2024-02-26T14:39:34;3.80;;;1.92;;
37973;SDS011;23796;51.458;7.000;2024-02-26T14:42:00;4.80;;;2.70;;
37973;SDS011;23796;51.458;7.000;2024-02-26T14:44:26;5.10;;;2.97;;
37973;SDS011;23796;51.458;7.000;2024-02-26T14:46:52;7.05;;;3.10;;
37973;SDS011;23796;51.458;7.000;2024-02-26T14:49:17;4.38;;;2.35;;
37973;SDS011;23796;51.458;7.000;2024-02-26T14:51:43;5.60;;;3.05;;
37973;SDS011;23796;51.458;7.000;2024-02-26T14:54:12;3.97;;;2.50;;
37973;SDS011;23796;51.458;7.000;2024-02-26T14:56:38;4.47;;;2.67;;
37973;SDS011;23796;51.458;7.000;2024-02-26T14:59:04;4.03;;;1.98;;
37973;SDS011;23796;51.458;7.000;2024-02-26T15:01:29;4.43;;;2.10;;